Terminal Aerodrome Forecast
Issued by NWS

Home | Current Version | Previous Version | Text Only | Print | Product List | Glossary On
Versions: 1 2 3 4 5 6 7 8 9 10 11 12 13 14 15 16 17 18 19 20 21 22 23
000
FTAK31 PAFA 282336
TAFAOM
TAF
PAOM 282336Z 2900/2924 24019KT P6SM SCT022 BKN240
     FM290500 21013KT P6SM OVC015
     FM291800 16015G21KT P6SM OVC015
     FM292100 16019G25KT P6SM OVC007
     FM292300 14019G25KT P6SM OVC015=

USA.gov is the U.S. government's official web portal to all federal, state and local government web resources and services.